Time;durP1;ratioP1;P1;durP2;ratioP2;P2;SDS_P1;SDS_P2;PMS_P1;PMS_P2;Temp;Humidity;BMP_temperature;BMP_pressure;BME280_temperature;BME280_humidity;BME280_pressure;Samples;Min_cycle;Max_cycle;Signal;HPM_P1;HPM_P2
2022/04/17 00:01:07;;;;;;;0.70;0.70;;;6.50;99.90;;;;;;5049803;28;20203;-76
2022/04/17 00:03:34;;;;;;;0.50;0.40;;;6.40;99.90;;;;;;5051297;28;20190;-76
2022/04/17 00:06:00;;;;;;;0.50;0.40;;;6.50;99.90;;;;;;5051530;28;20715;-76
2022/04/17 00:08:28;;;;;;;0.50;0.40;;;6.40;99.90;;;;;;5051625;28;20198;-77
2022/04/17 00:10:54;;;;;;;0.50;0.50;;;6.50;99.90;;;;;;5050651;28;20229;-73
2022/04/17 00:13:21;;;;;;;0.50;0.50;;;6.60;99.90;;;;;;5051458;28;20688;-76
2022/04/17 00:15:49;;;;;;;0.50;0.40;;;6.50;99.90;;;;;;5051302;28;20226;-73
2022/04/17 00:18:17;;;;;;;0.50;0.40;;;6.60;99.90;;;;;;5051666;28;20541;-76
2022/04/17 00:20:44;;;;;;;0.50;0.40;;;6.60;99.90;;;;;;5050867;28;20191;-76
2022/04/17 00:23:10;;;;;;;0.50;0.40;;;6.50;99.90;;;;;;5051173;28;20198;-76
2022/04/17 00:25:37;;;;;;;0.50;0.40;;;6.50;99.90;;;;;;5050821;28;20241;-76
2022/04/17 00:28:05;;;;;;;0.50;0.40;;;6.50;99.90;;;;;;5051512;28;20565;-76
2022/04/17 00:30:32;;;;;;;0.50;0.40;;;6.50;99.90;;;;;;5050820;28;20234;-76
2022/04/17 00:32:59;;;;;;;1.80;1.70;;;6.50;99.90;;;;;;5051006;28;20620;-75
2022/04/17 00:35:27;;;;;;;0.50;0.40;;;6.60;99.90;;;;;;5051449;28;20219;-75
2022/04/17 00:37:53;;;;;;;0.50;0.40;;;6.60;99.90;;;;;;5051205;28;20198;-76
2022/04/17 00:40:20;;;;;;;0.50;0.40;;;6.60;99.90;;;;;;5050591;28;20191;-76
2022/04/17 00:42:47;;;;;;;0.50;0.40;;;6.60;99.90;;;;;;5050825;28;20198;-77
2022/04/17 00:45:15;;;;;;;0.50;0.40;;;6.60;99.90;;;;;;5051290;28;20245;-77
2022/04/17 00:47:41;;;;;;;0.50;0.40;;;6.60;99.90;;;;;;5051001;28;20227;-76
2022/04/17 00:50:09;;;;;;;0.50;0.40;;;6.60;99.90;;;;;;5050375;28;20194;-77
2022/04/17 00:52:38;;;;;;;0.50;0.40;;;6.50;99.90;;;;;;5050934;28;20195;-77
2022/04/17 00:55:06;;;;;;;0.50;0.40;;;6.40;99.90;;;;;;5053194;28;20254;-77
2022/04/17 00:57:34;;;;;;;1.35;1.25;;;6.40;99.90;;;;;;5054999;28;20199;-76
2022/04/17 01:00:02;;;;;;;0.50;0.40;;;6.40;99.90;;;;;;5052712;28;20269;-76
2022/04/17 01:02:29;;;;;;;0.50;0.40;;;6.40;99.90;;;;;;5054731;28;20194;-77
2022/04/17 01:04:56;;;;;;;0.50;0.50;;;6.30;99.90;;;;;;5055242;28;20688;-76
2022/04/17 01:07:23;;;;;;;0.50;0.40;;;6.30;99.90;;;;;;5055099;28;20201;-76
2022/04/17 01:09:52;;;;;;;0.65;0.65;;;6.30;99.90;;;;;;5054092;28;20224;-76
2022/04/17 01:12:19;;;;;;;0.50;0.45;;;6.20;99.90;;;;;;5054794;28;20256;-76
2022/04/17 01:14:46;;;;;;;6.93;2.00;;;6.20;99.90;;;;;;5054471;28;20222;-74
2022/04/17 01:17:13;;;;;;;0.50;0.40;;;6.10;99.90;;;;;;5055140;28;20265;-76
2022/04/17 01:19:40;;;;;;;0.50;0.40;;;6.00;99.90;;;;;;5053617;28;20194;-77
2022/04/17 01:22:10;;;;;;;0.50;0.40;;;6.00;99.90;;;;;;5054684;28;20206;-77
2022/04/17 01:27:24;;;;;;;0.50;0.40;;;5.90;99.90;;;;;;5054644;28;20186;-76
2022/04/17 01:29:51;;;;;;;0.60;0.60;;;5.90;99.90;;;;;;5053977;28;20565;-76
2022/04/17 01:32:18;;;;;;;0.50;0.40;;;5.90;99.90;;;;;;5054486;28;20199;-77
2022/04/17 01:34:45;;;;;;;0.50;0.40;;;5.80;99.90;;;;;;5054075;28;20218;-77
2022/04/17 01:37:14;;;;;;;0.50;0.45;;;5.80;99.90;;;;;;5054600;28;20191;-77
2022/04/17 01:39:42;;;;;;;0.50;0.40;;;5.70;99.90;;;;;;5053448;28;20191;-77
2022/04/17 01:42:08;;;;;;;0.50;0.40;;;5.60;99.90;;;;;;5054310;28;20198;-76
2022/04/17 01:44:35;;;;;;;0.50;0.40;;;5.50;99.90;;;;;;5054282;28;20587;-76
2022/04/17 01:47:03;;;;;;;0.50;0.50;;;5.40;99.90;;;;;;5054074;28;20198;-76
2022/04/17 01:49:30;;;;;;;0.50;0.40;;;5.30;99.90;;;;;;5053296;28;20218;-76
2022/04/17 01:51:57;;;;;;;0.70;0.70;;;5.20;99.90;;;;;;5054368;28;20194;-73
2022/04/17 01:54:27;;;;;;;0.50;0.40;;;5.10;99.90;;;;;;5054282;28;20226;-74
2022/04/17 01:56:55;;;;;;;0.50;0.40;;;5.10;99.90;;;;;;5054082;28;20671;-76
2022/04/17 01:59:23;;;;;;;0.50;0.50;;;5.00;99.90;;;;;;5050596;28;20195;-76
2022/04/17 02:01:51;;;;;;;0.50;0.40;;;4.90;99.90;;;;;;5053880;28;20202;-76
2022/04/17 02:04:18;;;;;;;1.90;1.80;;;4.80;99.90;;;;;;5053920;28;20215;-76
2022/04/17 02:06:45;;;;;;;0.50;0.50;;;4.80;99.90;;;;;;5052982;28;20664;-76
2022/04/17 02:09:13;;;;;;;0.50;0.40;;;4.80;99.90;;;;;;5052722;28;20245;-76
2022/04/17 02:11:42;;;;;;;0.60;0.40;;;4.90;99.90;;;;;;5053989;28;20202;-76
2022/04/17 02:14:10;;;;;;;0.50;0.40;;;4.80;99.90;;;;;;5053562;28;20210;-74
2022/04/17 02:16:37;;;;;;;0.50;0.50;;;4.80;99.90;;;;;;5053560;28;20211;-75
2022/04/17 02:19:05;;;;;;;0.50;0.50;;;4.70;99.90;;;;;;5053010;28;20194;-76
2022/04/17 02:21:32;;;;;;;0.70;0.70;;;4.60;99.90;;;;;;5053893;28;20198;-75
2022/04/17 02:24:00;;;;;;;0.50;0.40;;;4.60;99.90;;;;;;5053460;28;20198;-75
2022/04/17 02:26:27;;;;;;;0.50;0.40;;;4.70;99.90;;;;;;5054397;28;20243;-75
2022/04/17 02:28:56;;;;;;;0.60;0.50;;;4.70;99.90;;;;;;5053130;28;20201;-70
2022/04/17 02:31:24;;;;;;;0.63;0.63;;;4.50;99.90;;;;;;5053581;28;20190;-75
2022/04/17 02:33:51;;;;;;;0.60;0.50;;;4.50;99.90;;;;;;5053018;28;20726;-75
2022/04/17 02:36:18;;;;;;;0.50;0.40;;;4.40;99.90;;;;;;5052756;28;20626;-75
2022/04/17 02:38:45;;;;;;;0.50;0.40;;;4.50;99.90;;;;;;5053272;28;20198;-74
2022/04/17 02:41:11;;;;;;;0.82;0.82;;;4.50;99.90;;;;;;5053200;28;20206;-75
2022/04/17 02:43:38;;;;;;;0.70;0.70;;;4.40;99.90;;;;;;5053146;28;20216;-75
2022/04/17 02:46:06;;;;;;;0.50;0.40;;;4.30;99.90;;;;;;5053019;28;20213;-75
2022/04/17 02:48:32;;;;;;;0.50;0.40;;;4.20;99.90;;;;;;5052812;28;20201;-75
2022/04/17 02:50:59;;;;;;;0.50;0.40;;;4.10;99.90;;;;;;5052019;28;20198;-75
2022/04/17 02:53:26;;;;;;;0.50;0.40;;;4.00;99.90;;;;;;5053303;28;20576;-76
2022/04/17 02:55:53;;;;;;;0.50;0.40;;;4.00;99.90;;;;;;5052558;28;20214;-75
2022/04/17 02:58:20;;;;;;;0.50;0.50;;;4.00;99.90;;;;;;5052952;28;20195;-75
2022/04/17 03:06:16;;;;;;;0.50;0.40;;;4.10;99.90;;;;;;5052510;28;20193;-75
2022/04/17 03:08:43;;;;;;;0.50;0.40;;;4.10;99.90;;;;;;5052415;28;20668;-75
2022/04/17 03:11:11;;;;;;;0.50;0.40;;;4.00;99.90;;;;;;5052231;28;20664;-75
2022/04/17 03:13:38;;;;;;;0.50;0.40;;;4.00;99.90;;;;;;5052893;28;20398;-75
2022/04/17 03:16:06;;;;;;;0.50;0.40;;;3.90;99.90;;;;;;5052079;28;20699;-75
2022/04/17 03:18:34;;;;;;;0.50;0.50;;;3.90;99.90;;;;;;5051535;28;20241;-75
2022/04/17 03:21:01;;;;;;;0.50;0.40;;;3.90;99.90;;;;;;5051560;28;20225;-75
2022/04/17 03:23:28;;;;;;;0.50;0.40;;;3.90;99.90;;;;;;5052572;28;20202;-75
2022/04/17 03:25:54;;;;;;;0.50;0.40;;;3.90;99.90;;;;;;5052224;28;20245;-76
2022/04/17 03:28:21;;;;;;;0.50;0.50;;;3.90;99.90;;;;;;5052272;28;20201;-75
2022/04/17 03:30:48;;;;;;;0.50;0.40;;;3.80;99.90;;;;;;5051572;28;20198;-73
2022/04/17 03:33:15;;;;;;;0.50;0.43;;;3.70;99.90;;;;;;5051994;28;20204;-76
2022/04/17 03:35:43;;;;;;;0.50;0.40;;;3.80;99.90;;;;;;5052091;28;20226;-75
2022/04/17 03:38:10;;;;;;;0.50;0.40;;;3.70;99.90;;;;;;5052096;28;20201;-75
2022/04/17 03:40:37;;;;;;;0.95;0.95;;;3.70;99.90;;;;;;5050952;28;20233;-75
2022/04/17 03:43:04;;;;;;;0.50;0.40;;;3.60;99.90;;;;;;5052033;28;20218;-75
2022/04/17 03:45:31;;;;;;;0.50;0.40;;;3.70;99.90;;;;;;5052178;28;20211;-75
2022/04/17 03:47:59;;;;;;;0.50;0.40;;;3.60;99.90;;;;;;5051810;28;20212;-75
2022/04/17 03:50:26;;;;;;;0.50;0.40;;;3.60;99.90;;;;;;5051186;28;20251;-75
2022/04/17 03:52:55;;;;;;;0.50;0.40;;;3.60;99.90;;;;;;5051641;28;20202;-75
2022/04/17 03:55:21;;;;;;;0.50;0.40;;;3.60;99.90;;;;;;5051142;28;20592;-75
2022/04/17 03:57:48;;;;;;;0.50;0.50;;;3.60;99.90;;;;;;5051988;28;20607;-75
2022/04/17 04:00:16;;;;;;;0.50;0.50;;;3.70;99.90;;;;;;5049359;28;20206;-75
2022/04/17 04:02:44;;;;;;;0.50;0.50;;;3.80;99.90;;;;;;5051458;28;20202;-75
2022/04/17 04:05:11;;;;;;;0.50;0.50;;;3.80;99.90;;;;;;5051115;28;20738;-74
2022/04/17 04:07:39;;;;;;;0.60;0.47;;;3.80;99.90;;;;;;5051657;28;20193;-75
2022/04/17 04:10:09;;;;;;;0.50;0.50;;;3.80;99.90;;;;;;5050592;28;20194;-75
2022/04/17 04:12:36;;;;;;;0.50;0.50;;;3.70;99.90;;;;;;5051823;28;20200;-75
2022/04/17 04:15:04;;;;;;;0.50;0.40;;;3.70;99.90;;;;;;5051125;28;20220;-76
2022/04/17 04:17:30;;;;;;;1.40;1.30;;;3.70;99.90;;;;;;5051404;28;20225;-75
2022/04/17 04:19:57;;;;;;;0.50;0.40;;;3.70;99.90;;;;;;5050779;28;20198;-73
2022/04/17 04:22:24;;;;;;;0.60;0.60;;;3.60;99.90;;;;;;5051556;28;20199;-76
2022/04/17 04:24:51;;;;;;;0.50;0.50;;;3.60;99.90;;;;;;5051121;28;20612;-75
2022/04/17 04:30:03;;;;;;;0.50;0.40;;;3.50;99.90;;;;;;5049991;28;20186;-75
2022/04/17 04:32:30;;;;;;;0.50;0.40;;;3.50;99.90;;;;;;5051325;28;20569;-75
2022/04/17 04:34:59;;;;;;;0.98;0.88;;;3.40;99.90;;;;;;5051252;28;20229;-75
2022/04/17 04:37:26;;;;;;;0.50;0.40;;;3.30;99.90;;;;;;5051174;28;20711;-75
2022/04/17 04:39:53;;;;;;;0.50;0.40;;;3.40;99.90;;;;;;5050342;28;20205;-75
2022/04/17 04:42:21;;;;;;;0.50;0.40;;;3.40;99.90;;;;;;5051071;28;20202;-75
2022/04/17 04:46:06;;;;;;;0.75;0.75;;;3.30;99.90;;;;;;5050638;28;20225;-71
2022/04/17 04:47:34;;;;;;;0.50;0.40;;;3.40;99.90;;;;;;5050993;28;20197;-72
2022/04/17 04:50:01;;;;;;;0.50;0.40;;;3.40;99.90;;;;;;5050259;28;20194;-75
2022/04/17 04:52:28;;;;;;;0.50;0.50;;;3.30;99.90;;;;;;5051756;28;20462;-75
2022/04/17 04:54:55;;;;;;;0.50;0.40;;;3.30;99.90;;;;;;5050606;28;20248;-75
2022/04/17 04:57:23;;;;;;;0.50;0.40;;;3.30;99.90;;;;;;5051373;28;20561;-75
2022/04/17 04:59:50;;;;;;;0.50;0.40;;;3.40;99.90;;;;;;5048571;28;20195;-75
2022/04/17 05:02:17;;;;;;;0.50;0.50;;;3.30;99.90;;;;;;5050724;28;20198;-75
2022/04/17 05:04:44;;;;;;;0.50;0.40;;;3.30;99.90;;;;;;5050941;28;20221;-75
2022/04/17 05:07:10;;;;;;;0.75;0.75;;;3.40;99.90;;;;;;5051087;28;20194;-76
2022/04/17 05:09:37;;;;;;;0.50;0.50;;;3.40;99.90;;;;;;5049973;28;20201;-75
2022/04/17 05:12:05;;;;;;;0.50;0.40;;;3.50;99.90;;;;;;5050893;28;20229;-75
2022/04/17 05:14:33;;;;;;;1.70;1.60;;;3.50;99.90;;;;;;5051000;28;20225;-75
2022/04/17 05:16:59;;;;;;;0.50;0.50;;;3.70;99.90;;;;;;5050618;28;20595;-75
2022/04/17 05:19:27;;;;;;;0.50;0.40;;;3.80;99.90;;;;;;5050452;28;20214;-75
2022/04/17 05:21:57;;;;;;;0.60;0.60;;;3.90;99.90;;;;;;5050370;28;20222;-75
2022/04/17 05:24:24;;;;;;;0.60;0.50;;;3.90;99.90;;;;;;5050336;28;20720;-76
2022/04/17 05:26:51;;;;;;;0.50;0.40;;;3.90;99.90;;;;;;5050731;28;20580;-73
2022/04/17 05:29:18;;;;;;;0.80;0.80;;;4.00;99.90;;;;;;5050391;28;20206;-75
2022/04/17 05:31:46;;;;;;;0.50;0.40;;;4.10;99.90;;;;;;5050573;28;20204;-75
2022/04/17 05:34:13;;;;;;;0.50;0.40;;;4.20;99.90;;;;;;5050968;28;20226;-77
2022/04/17 05:36:40;;;;;;;0.50;0.50;;;4.30;99.90;;;;;;5050460;28;20699;-75
2022/04/17 05:39:07;;;;;;;2.00;1.15;;;4.60;99.90;;;;;;5049923;28;20202;-74
2022/04/17 05:41:34;;;;;;;0.50;0.40;;;5.80;99.90;;;;;;5052148;28;20237;-74
2022/04/17 05:44:01;;;;;;;0.50;0.40;;;7.60;99.90;;;;;;5054084;28;20195;-74
2022/04/17 05:46:30;;;;;;;0.50;0.40;;;9.60;99.90;;;;;;5053880;28;20198;-75
2022/04/17 05:48:59;;;;;;;0.50;0.40;;;11.40;99.90;;;;;;5053367;28;20211;-72
2022/04/17 05:51:25;;;;;;;0.50;0.40;;;13.10;99.90;;;;;;5054131;28;20512;-75
2022/04/17 05:53:52;;;;;;;0.50;0.40;;;14.10;99.50;;;;;;5054177;28;20195;-75
2022/04/17 05:56:19;;;;;;;1.23;1.23;;;15.30;92.90;;;;;;5053926;28;20219;-75
2022/04/17 05:58:46;;;;;;;0.50;0.40;;;16.50;86.80;;;;;;5053128;28;20440;-74
2022/04/17 06:01:13;;;;;;;0.50;0.30;;;17.80;77.10;;;;;;5053697;28;20440;-75
2022/04/17 06:03:39;;;;;;;0.50;0.40;;;19.10;71.90;;;;;;5053309;28;20436;-75
2022/04/17 06:06:07;;;;;;;0.50;0.30;;;20.20;64.80;;;;;;5053878;28;20465;-76
2022/04/17 06:08:34;;;;;;;0.50;0.40;;;21.20;60.70;;;;;;5053991;28;20440;-76
2022/04/17 06:11:01;;;;;;;1.10;1.00;;;22.10;58.10;;;;;;5053187;28;20879;-76
2022/04/17 06:13:28;;;;;;;0.50;0.37;;;22.60;54.30;;;;;;5053429;28;20440;-76
2022/04/17 06:15:54;;;;;;;0.50;0.40;;;23.10;52.90;;;;;;5053546;28;20464;-74
2022/04/17 06:18:21;;;;;;;0.50;0.40;;;23.60;49.80;;;;;;5053443;28;20436;-77
2022/04/17 06:20:48;;;;;;;0.50;0.30;;;23.80;49.20;;;;;;5053257;28;20534;-76
2022/04/17 06:23:16;;;;;;;0.50;0.30;;;24.10;48.80;;;;;;5053539;28;20444;-76
2022/04/17 06:25:43;;;;;;;0.50;0.40;;;24.40;47.90;;;;;;5053209;28;20477;-75
2022/04/17 06:28:09;;;;;;;0.50;0.30;;;24.30;47.70;;;;;;5053034;28;20449;-76
2022/04/17 06:30:36;;;;;;;0.50;0.37;;;24.70;47.70;;;;;;5052960;28;20503;-77
2022/04/17 06:33:03;;;;;;;0.50;0.30;;;25.20;46.80;;;;;;5053460;28;20467;-75
2022/04/17 06:35:30;;;;;;;0.50;0.30;;;25.60;46.70;;;;;;5053404;28;20835;-76
2022/04/17 06:37:59;;;;;;;0.50;0.30;;;26.00;44.80;;;;;;5053277;28;20491;-75
2022/04/17 06:40:28;;;;;;;0.50;0.30;;;26.00;45.40;;;;;;5052313;28;20440;-76
2022/04/17 06:42:57;;;;;;;0.50;0.30;;;26.80;46.10;;;;;;5052433;28;20468;-76
2022/04/17 06:45:25;;;;;;;0.50;0.30;;;27.50;43.80;;;;;;5053338;28;20453;-76
2022/04/17 06:47:51;;;;;;;0.50;0.33;;;27.90;42.90;;;;;;5053040;28;20437;-76
2022/04/17 06:50:20;;;;;;;0.50;0.40;;;28.20;42.30;;;;;;5051973;28;20815;-75
2022/04/17 06:52:47;;;;;;;0.50;0.30;;;28.00;41.90;;;;;;5052838;28;20479;-76
2022/04/17 06:55:15;;;;;;;0.50;0.37;;;28.20;41.90;;;;;;5052884;28;20453;-76
2022/04/17 06:57:47;;;;;;;0.50;0.30;;;28.60;41.40;;;;;;5052777;28;20477;-76
2022/04/17 07:00:17;;;;;;;0.50;0.40;;;28.60;40.10;;;;;;5050498;28;20430;-75
2022/04/17 07:02:44;;;;;;;1.53;0.40;;;25.80;39.30;;;;;;5051181;28;20445;-75
2022/04/17 07:05:12;;;;;;;0.50;0.40;;;24.60;40.10;;;;;;5052346;28;20491;-76
2022/04/17 07:07:39;;;;;;;0.50;0.40;;;24.60;40.80;;;;;;5053021;28;20433;-76
2022/04/17 07:10:06;;;;;;;0.50;0.40;;;22.00;41.00;;;;;;5051862;28;20934;-75
2022/04/17 07:12:34;;;;;;;2.00;0.60;;;22.40;41.90;;;;;;5052996;28;20444;-76
2022/04/17 07:15:06;;;;;;;0.50;0.40;;;21.10;41.60;;;;;;5052100;28;20504;-75
2022/04/17 07:17:36;;;;;;;0.50;0.40;;;20.30;42.90;;;;;;5051977;28;20468;-75
2022/04/17 07:20:05;;;;;;;0.50;0.40;;;19.50;43.90;;;;;;5051672;28;20441;-75
2022/04/17 07:22:32;;;;;;;0.60;0.60;;;19.20;45.00;;;;;;5052451;28;20449;-75
2022/04/17 07:25:01;;;;;;;0.50;0.30;;;19.50;45.20;;;;;;5052185;28;20461;-75
2022/04/17 07:27:28;;;;;;;0.50;0.43;;;20.50;45.50;;;;;;5052180;28;20433;-76
2022/04/17 07:29:55;;;;;;;0.50;0.30;;;22.20;44.80;;;;;;5050708;28;20444;-75
2022/04/17 07:32:23;;;;;;;0.60;0.50;;;22.00;43.90;;;;;;5052410;28;20524;-75
2022/04/17 07:34:50;;;;;;;0.50;0.30;;;22.00;43.00;;;;;;5052215;28;20480;-72
2022/04/17 07:37:25;;;;;;;0.50;0.50;;;21.40;43.90;;;;;;5052052;28;20499;-76
2022/04/17 07:39:52;;;;;;;0.83;0.67;;;22.50;43.30;;;;;;5051150;28;20421;-76
2022/04/17 07:42:20;;;;;;;0.50;0.40;;;23.70;43.70;;;;;;5051844;28;20661;-76
2022/04/17 07:44:47;;;;;;;0.50;0.40;;;22.90;41.50;;;;;;5052093;28;20461;-76
2022/04/17 07:47:14;;;;;;;0.50;0.37;;;22.60;42.70;;;;;;5051544;28;20437;-76
2022/04/17 07:49:43;;;;;;;0.50;0.40;;;22.30;43.00;;;;;;5051370;28;20441;-77
2022/04/17 07:52:10;;;;;;;1.10;0.63;;;22.30;42.70;;;;;;5052049;28;20437;-78
2022/04/17 07:54:36;;;;;;;0.50;0.30;;;22.20;41.70;;;;;;5051912;28;20461;-77
2022/04/17 07:57:04;;;;;;;0.50;0.40;;;22.40;42.50;;;;;;5051259;28;20486;-75
2022/04/17 07:59:30;;;;;;;0.50;0.30;;;22.80;42.30;;;;;;5049654;28;20799;-75
2022/04/17 08:02:01;;;;;;;0.50;0.40;;;22.40;42.70;;;;;;5051442;28;20448;-75
2022/04/17 08:04:28;;;;;;;0.50;0.40;;;23.10;43.50;;;;;;5051278;28;20461;-75
2022/04/17 08:06:56;;;;;;;0.50;0.40;;;23.80;41.80;;;;;;5051559;28;20436;-74
2022/04/17 08:09:23;;;;;;;0.50;0.40;;;24.50;43.10;;;;;;5050734;28;20819;-76
2022/04/17 08:11:51;;;;;;;0.50;0.30;;;24.00;41.30;;;;;;5051877;28;20437;-75
2022/04/17 08:14:18;;;;;;;0.80;0.80;;;23.60;41.80;;;;;;5051135;28;20470;-75
2022/04/17 08:16:45;;;;;;;0.50;0.40;;;24.70;42.90;;;;;;5051241;28;20455;-75
2022/04/17 08:19:12;;;;;;;0.60;0.50;;;26.10;40.90;;;;;;5050626;28;20524;-75
2022/04/17 08:21:40;;;;;;;0.50;0.40;;;26.30;40.20;;;;;;5051151;28;20444;-75
2022/04/17 08:24:08;;;;;;;0.50;0.30;;;25.90;39.40;;;;;;5051130;28;20493;-74
2022/04/17 08:26:35;;;;;;;0.50;0.30;;;26.80;40.20;;;;;;5052256;28;20792;-75
2022/04/17 08:29:02;;;;;;;0.50;0.30;;;26.10;39.30;;;;;;5050511;28;20437;-75
2022/04/17 08:31:28;;;;;;;0.50;0.30;;;25.90;39.30;;;;;;5051577;28;20448;-75
2022/04/17 08:33:55;;;;;;;0.50;0.30;;;26.90;39.70;;;;;;5050598;28;20433;-75
2022/04/17 08:36:22;;;;;;;0.50;0.40;;;28.10;39.10;;;;;;5051373;28;21224;-75
2022/04/17 08:38:48;;;;;;;0.60;0.57;;;28.60;38.20;;;;;;5050535;28;20476;-73
2022/04/17 08:41:20;;;;;;;0.50;0.30;;;29.10;37.70;;;;;;5051158;28;20437;-75
2022/04/17 08:43:47;;;;;;;0.50;0.30;;;29.30;36.70;;;;;;5050887;28;20444;-75
2022/04/17 08:46:14;;;;;;;0.50;0.30;;;29.70;36.90;;;;;;5051516;28;20464;-75
2022/04/17 08:48:40;;;;;;;0.50;0.30;;;29.70;36.00;;;;;;5051189;28;20460;-75
2022/04/17 08:51:08;;;;;;;0.50;0.30;;;29.30;36.40;;;;;;5050272;28;20440;-75
2022/04/17 08:53:36;;;;;;;0.60;0.50;;;29.60;36.20;;;;;;5050698;28;20456;-75
2022/04/17 08:56:03;;;;;;;0.50;0.30;;;29.40;35.30;;;;;;5051079;28;20511;-76
2022/04/17 08:58:32;;;;;;;0.50;0.30;;;28.50;35.50;;;;;;5050681;28;20475;-75
2022/04/17 09:00:58;;;;;;;0.90;0.50;;;29.10;35.90;;;;;;5049287;28;20449;-74
2022/04/17 09:03:25;;;;;;;0.50;0.50;;;28.50;35.30;;;;;;5050790;28;20433;-75
2022/04/17 09:05:53;;;;;;;0.50;0.40;;;26.60;36.40;;;;;;5051305;28;20468;-73
2022/04/17 09:08:21;;;;;;;0.50;0.30;;;26.50;37.00;;;;;;5050905;28;20491;-75
2022/04/17 09:10:55;;;;;;;0.50;0.30;;;27.70;38.30;;;;;;5050155;28;20528;-75
2022/04/17 09:13:29;;;;;;;0.50;0.40;;;27.40;36.50;;;;;;5050528;28;20891;-75
2022/04/17 09:15:58;;;;;;;0.50;0.30;;;27.40;36.70;;;;;;5051751;28;20464;-75
2022/04/17 09:18:28;;;;;;;0.50;0.30;;;27.80;36.80;;;;;;5054533;28;20477;-74
2022/04/17 09:20:56;;;;;;;0.50;0.30;;;26.80;36.40;;;;;;5054395;28;20456;-75
2022/04/17 09:23:36;;;;;;;0.60;0.40;;;26.80;37.90;;;;;;5054511;28;20810;-74
2022/04/17 09:26:04;;;;;;;0.50;0.30;;;26.40;37.90;;;;;;5054134;28;20480;-74
2022/04/17 09:28:32;;;;;;;0.50;0.40;;;26.10;38.40;;;;;;5054754;28;20441;-75
2022/04/17 09:31:02;;;;;;;0.50;0.30;;;26.70;37.70;;;;;;5054142;28;20507;-72
2022/04/17 09:33:37;;;;;;;0.50;0.30;;;27.50;37.90;;;;;;5054445;28;20468;-76
2022/04/17 09:36:05;;;;;;;0.50;0.30;;;28.70;37.40;;;;;;5054181;28;20456;-75
2022/04/17 09:38:33;;;;;;;0.50;0.30;;;28.90;36.00;;;;;;5054457;28;20837;-75
2022/04/17 09:41:07;;;;;;;0.50;0.40;;;28.30;35.00;;;;;;5053652;28;20473;-71
2022/04/17 09:43:35;;;;;;;0.50;0.40;;;28.00;35.30;;;;;;5054374;28;20436;-75
2022/04/17 09:46:04;;;;;;;0.50;0.40;;;28.10;38.60;;;;;;5054149;28;20511;-75
2022/04/17 09:48:32;;;;;;;0.50;0.30;;;29.20;36.60;;;;;;5054149;28;20437;-75
2022/04/17 09:51:00;;;;;;;0.50;0.30;;;30.20;36.80;;;;;;5053224;28;20448;-71
2022/04/17 09:53:35;;;;;;;0.50;0.30;;;30.60;35.70;;;;;;5054366;28;20750;-75
2022/04/17 09:56:10;;;;;;;0.50;0.30;;;29.60;33.60;;;;;;5053520;28;20464;-74
2022/04/17 09:58:38;;;;;;;0.50;0.30;;;29.80;33.80;;;;;;5053816;28;20564;-75
2022/04/17 10:01:07;;;;;;;0.50;0.30;;;30.10;34.90;;;;;;5051056;28;20452;-75
2022/04/17 10:03:38;;;;;;;0.60;0.40;;;30.60;35.30;;;;;;5053799;28;20448;-76
2022/04/17 10:06:05;;;;;;;0.50;0.30;;;31.30;35.30;;;;;;5053719;28;20491;-75
2022/04/17 10:08:33;;;;;;;0.50;0.30;;;31.70;36.80;;;;;;5053550;28;20445;-75
2022/04/17 10:11:01;;;;;;;0.50;0.30;;;32.20;34.40;;;;;;5052754;28;20463;-71
2022/04/17 10:13:28;;;;;;;0.50;0.30;;;32.00;33.70;;;;;;5053203;28;20930;-75
2022/04/17 10:15:59;;;;;;;0.50;0.30;;;31.60;34.20;;;;;;5053635;28;20465;-75
2022/04/17 10:18:33;;;;;;;0.50;0.30;;;31.20;34.20;;;;;;5053331;28;20465;-76
2022/04/17 10:21:00;;;;;;;0.50;0.30;;;31.20;35.20;;;;;;5052788;28;20428;-73
2022/04/17 10:23:27;;;;;;;0.50;0.30;;;31.40;37.30;;;;;;5053250;28;20445;-76
2022/04/17 10:25:57;;;;;;;0.50;0.30;;;32.30;34.20;;;;;;5052966;28;20522;-73
2022/04/17 10:28:26;;;;;;;0.50;0.30;;;32.70;35.50;;;;;;5053072;28;20433;-76
2022/04/17 10:31:05;;;;;;;0.50;0.30;;;33.50;33.30;;;;;;5052612;28;20440;-75
2022/04/17 10:33:55;;;;;;;0.50;0.30;;;32.60;32.80;;;;;;5052909;28;20507;-75
2022/04/17 10:36:32;;;;;;;0.50;0.30;;;32.00;32.90;;;;;;5052205;28;20445;-75
2022/04/17 10:39:14;;;;;;;0.50;0.30;;;30.90;33.00;;;;;;5052224;28;20850;-73
2022/04/17 10:41:42;;;;;;;0.50;0.30;;;31.10;36.20;;;;;;5052956;28;20923;-75
2022/04/17 10:44:11;;;;;;;0.50;0.30;;;31.70;32.60;;;;;;5053149;28;20477;-76
2022/04/17 10:46:48;;;;;;;0.50;0.30;;;32.50;34.90;;;;;;5052017;28;20511;-75
2022/04/17 10:49:19;;;;;;;0.50;0.30;;;32.60;33.40;;;;;;5052139;28;20433;-75
2022/04/17 10:51:54;;;;;;;0.50;0.30;;;31.90;32.80;;;;;;5052686;28;20437;-75
2022/04/17 10:54:21;;;;;;;0.50;0.30;;;31.70;34.30;;;;;;5052657;28;20460;-74
2022/04/17 10:57:02;;;;;;;0.50;0.30;;;31.50;34.80;;;;;;5052748;28;20440;-75
2022/04/17 10:59:30;;;;;;;0.50;0.30;;;32.20;34.40;;;;;;5051570;28;20566;-73
2022/04/17 11:02:02;;;;;;;0.50;0.30;;;31.80;33.20;;;;;;5052839;28;20564;-75
2022/04/17 11:04:31;;;;;;;0.50;0.30;;;32.20;33.80;;;;;;5052569;28;20461;-74
2022/04/17 11:07:21;;;;;;;0.50;0.30;;;32.60;33.80;;;;;;5052389;28;20456;-75
2022/04/17 11:09:48;;;;;;;0.50;0.30;;;32.70;31.10;;;;;;5051735;28;20487;-75
2022/04/17 11:12:24;;;;;;;0.50;0.30;;;32.20;31.50;;;;;;5052324;28;20441;-76
2022/04/17 11:14:56;;;;;;;0.50;0.30;;;32.10;33.50;;;;;;5052530;28;20876;-73
2022/04/17 11:17:24;;;;;;;0.50;0.30;;;32.50;32.50;;;;;;5052388;28;20949;-75
2022/04/17 11:19:56;;;;;;;0.50;0.30;;;31.80;31.10;;;;;;5051749;28;20481;-75
2022/04/17 11:22:28;;;;;;;0.50;0.30;;;31.90;34.60;;;;;;5052524;28;20421;-75
2022/04/17 11:25:07;;;;;;;0.50;0.40;;;31.90;31.50;;;;;;5051666;28;20511;-74
2022/04/17 11:27:38;;;;;;;0.50;0.30;;;31.00;31.30;;;;;;5052324;28;20887;-75
2022/04/17 11:30:07;;;;;;;0.50;0.30;;;31.10;33.00;;;;;;5051423;28;20527;-75
2022/04/17 11:32:51;;;;;;;0.50;0.30;;;31.40;32.60;;;;;;5052336;28;20800;-75
2022/04/17 11:35:24;;;;;;;0.50;0.30;;;32.10;33.30;;;;;;5052108;28;20826;-75
2022/04/17 11:37:56;;;;;;;0.50;0.30;;;31.80;32.10;;;;;;5051801;28;20433;-75
2022/04/17 11:40:27;;;;;;;0.50;0.30;;;31.60;31.20;;;;;;5050351;28;20437;-75
2022/04/17 11:42:55;;;;;;;0.50;0.30;;;30.90;32.50;;;;;;5052110;28;20441;-75
2022/04/17 11:45:25;;;;;;;0.50;0.30;;;31.50;34.20;;;;;;5051915;28;20480;-74
2022/04/17 11:47:53;;;;;;;4.93;1.30;;;31.80;31.20;;;;;;5051716;28;20446;-75
2022/04/17 11:50:26;;;;;;;0.77;0.50;;;31.30;32.20;;;;;;5051033;28;20524;-75
2022/04/17 11:52:54;;;;;;;0.50;0.30;;;30.30;32.90;;;;;;5058470;28;20508;-75
2022/04/17 11:55:29;;;;;;;0.50;0.30;;;30.90;35.10;;;;;;5071476;28;20460;-75
2022/04/17 11:57:56;;;;;;;0.80;0.53;;;31.80;34.50;;;;;;5063937;28;20799;-70
2022/04/17 12:00:25;;;;;;;0.50;0.30;;;32.30;33.70;;;;;;5070926;28;20848;-75
2022/04/17 12:03:00;;;;;;;0.50;0.30;;;32.30;32.70;;;;;;5070973;28;20471;-73
2022/04/17 12:05:30;;;;;;;0.50;0.30;;;33.00;33.00;;;;;;5069958;28;20471;-75
2022/04/17 12:08:09;;;;;;;0.50;0.30;;;33.20;33.40;;;;;;5063687;28;20450;-71
2022/04/17 12:10:38;;;;;;;0.50;0.30;;;33.80;34.30;;;;;;5070532;28;20443;-75
2022/04/17 12:13:19;;;;;;;0.50;0.30;;;34.00;32.20;;;;;;5071449;28;20443;-73
2022/04/17 12:15:48;;;;;;;0.50;0.30;;;33.70;31.70;;;;;;5071586;28;20549;-75
2022/04/17 12:18:19;;;;;;;0.50;0.30;;;33.60;31.70;;;;;;5071467;28;20554;-75
2022/04/17 12:20:56;;;;;;;0.50;0.30;;;33.40;33.50;;;;;;5066707;28;20472;-75
2022/04/17 12:23:24;;;;;;;4.10;3.80;;;33.70;32.30;;;;;;5068136;28;20448;-75
2022/04/17 12:25:52;;;;;;;0.50;0.30;;;33.40;32.20;;;;;;5070518;28;20460;-75
2022/04/17 12:28:19;;;;;;;0.50;0.30;;;32.70;32.20;;;;;;5071407;28;20424;-75
2022/04/17 12:30:46;;;;;;;0.50;0.30;;;32.20;31.40;;;;;;5061772;28;20433;-74
2022/04/17 12:33:23;;;;;;;0.50;0.30;;;31.40;31.40;;;;;;5051028;28;20433;-73
2022/04/17 12:36:05;;;;;;;0.50;0.30;;;31.60;31.60;;;;;;5069801;28;21191;-75
2022/04/17 12:38:32;;;;;;;0.50;0.30;;;31.70;31.50;;;;;;5069714;28;20897;-76
2022/04/17 12:40:59;;;;;;;0.50;0.30;;;31.60;32.50;;;;;;5064581;28;20436;-75
2022/04/17 12:43:29;;;;;;;0.50;0.30;;;31.40;32.50;;;;;;5070653;28;20462;-75
2022/04/17 12:45:59;;;;;;;0.50;0.30;;;32.00;32.30;;;;;;5062879;28;20455;-74
2022/04/17 12:48:28;;;;;;;0.50;0.30;;;31.40;33.40;;;;;;5071035;28;20431;-75
2022/04/17 12:50:59;;;;;;;0.50;0.30;;;31.20;31.00;;;;;;5072634;28;20428;-75
2022/04/17 12:53:32;;;;;;;0.50;0.30;;;31.30;32.80;;;;;;5075346;28;20436;-75
2022/04/17 12:55:59;;;;;;;0.50;0.30;;;31.20;33.10;;;;;;5075410;28;20456;-76
2022/04/17 12:58:26;;;;;;;0.50;0.30;;;31.40;33.60;;;;;;5075228;28;21008;-75
2022/04/17 13:00:57;;;;;;;0.50;0.30;;;31.60;34.20;;;;;;5074552;28;20444;-76
2022/04/17 13:03:34;;;;;;;0.50;0.30;;;32.30;32.80;;;;;;5075297;28;20444;-76
2022/04/17 13:06:01;;;;;;;0.50;0.30;;;32.20;30.90;;;;;;5075125;28;20892;-75
2022/04/17 13:08:29;;;;;;;0.50;0.30;;;31.80;31.40;;;;;;5074931;28;20440;-75